This demonstration page uses our WeatherBlox Daily Observations layout. Learn more.

36.17497, -115.13722

Hourly Observations for August 30, 2018

Temp ( °F °C ) Dew Point ( °F °C ) Humidity (%) Winds ( mph kmh ) Pressure ( in mb ) Visibility ( mi km ) Precip ( " mm )
12:53 am 00:53 Clear 86 30 31 -0.6 14 14 S 8 13 29.85 1011 10 16.0934 0 0
1:53 am 01:53 Clear 85 29.4 33 0.6 15 15 S 6 9 29.86 1011 10 16.0934 0 0
2:53 am 02:53 Clear 82 27.8 33 0.6 17 17 Calm 29.85 1011 10 16.0934 0 0
3:53 am 03:53 Clear 81 27.2 34 1.1 18 18 SSE 3 6 29.86 1011 10 16.0934 0 0
4:53 am 04:53 Clear 80 26.7 35 1.7 20 20 SE 8 13 29.86 1011 10 16.0934 0 0
5:53 am 05:53 Clear 78 25.6 36 2.2 22 22 Calm 29.86 1011 10 16.0934 0 0
6:53 am 06:53 Sunny 79 26.1 39 3.9 24 24 SE 7 11 29.88 1012 10 16.0934 0 0
7:53 am 07:53 Sunny 84 28.9 37 2.8 19 19 SE 6 9 29.89 1012 10 16.0934 0 0
8:53 am 08:53 Sunny 88 31.1 36 2.2 16 16 SE 14 22 29.89 1012 10 16.0934 0 0
9:53 am 09:53 Sunny 94 34.4 28 -2.2 9 9 SSW 12 19 29.89 1012 10 16.0934 0 0
10:53 am 10:53 Sunny 96 35.6 24 -4.4 7 7 SSW 17 28 29.88 1012 10 16.0934 0 0
11:53 am 11:53 Sunny 98 36.7 24 -4.4 7 7 S 18 30 29.86 1011 10 16.0934 0 0
12:53 pm 12:53 Sunny 98 36.7 21 -6.1 6 6 SSW 15 24 29.85 1011 10 16.0934 0 0
1:53 pm 13:53 Sunny 100 37.8 22 -5.6 6 6 WSW 20 31 29.83 1010 10 16.0934 0 0
2:53 pm 14:53 Sunny 100 37.8 24 -4.4 7 7 WSW 16 26 29.82 1010 10 16.0934 0 0
3:53 pm 15:53 Sunny 101 38.3 26 -3.3 7 7 SSW 14 22 29.8 1009 10 16.0934 0 0
4:53 pm 16:53 Sunny 100 37.8 29 -1.7 8 8 SSW 17 28 29.78 1008 10 16.0934 0 0
5:53 pm 17:53 Sunny 98 36.7 25 -3.9 7 7 SW 12 19 29.78 1009 10 16.0934 0 0
6:53 pm 18:53 Sunny 97 36.1 22 -5.6 7 7 SW 13 20 29.78 1009 10 16.0934 0 0
7:53 pm 19:53 Clear 93 33.9 24 -4.4 8 8 SSW 8 13 29.79 1009 10 16.0934 0 0
8:53 pm 20:53 Clear 92 33.3 25 -3.9 9 9 S 7 11 29.8 1009 10 16.0934 0 0
9:53 pm 21:53 Clear 91 32.8 22 -5.6 8 8 SSW 7 11 29.8 1009 10 16.0934 0 0
10:53 pm 22:53 Clear 89 31.7 21 -6.1 8 8 SW 7 11 29.8 1009 10 16.0934 0 0
11:53 pm 23:53 Clear 88 31.1 27 -2.8 11 11 SSW 8 13 29.8 1009 10 16.0934 0 0

Powered by AerisWeather